Corinth, North Dakota
Current Conditions -  °F | °C
As of 4:55 PM on Saturday 25 Oct 2014 (Local Time) from KD50 Reporting Station
Clear Clear  
Wind Chill: 59°   Ceiling: Unl
Heat Index: 59°   Visibility: 10mi
Dew Point: 28°   Wind: 9mph
Humidity: 31%   Direction: 140°SE
Pressure: 29.99"   Gusts: NA
Location:  48.59°N, 103.406°W
Report Text: KD50 252155Z AUTO 14008KT 10SM CLR 15/M02 A2999 RMK AO2
Loading
Personal Weather Stations






























Interactive Weather Map
Tropical Storm Tracking
New forecast layout! Learn more

10-Day Weather Forecast

Advertisements
Track Severe Weather on mobile